Time;durP1;ratioP1;P1;durP2;ratioP2;P2;SDS_P1;SDS_P2;PMS_P1;PMS_P2;Temp;Humidity;BMP_temperature;BMP_pressure;BME280_temperature;BME280_humidity;BME280_pressure;Samples;Min_cycle;Max_cycle;Signal;HPM_P1;HPM_P2
2020/12/30 00:01:05;;;;;;;7.03;4.57;;;;;;;4.76;45.96;99291.72;5114973;28;20047;-67
2020/12/30 00:03:34;;;;;;;6.45;4.32;;;;;;;4.77;46.19;99293.44;5114084;28;20047;-67
2020/12/30 00:06:01;;;;;;;7.28;4.10;;;;;;;4.77;46.00;99293.44;5118972;28;20047;-67
2020/12/30 00:08:29;;;;;;;6.35;4.10;;;;;;;4.76;46.07;99295.28;5109619;28;20028;-67
2020/12/30 00:10:58;;;;;;;5.78;3.58;;;;;;;4.76;46.12;99300.69;5113663;28;20032;-67
2020/12/30 00:13:25;;;;;;;6.70;3.97;;;;;;;4.77;45.68;99301.56;5108820;28;20063;-67
2020/12/30 00:15:52;;;;;;;6.63;3.88;;;;;;;4.75;45.99;99298.97;5119477;28;20039;-67
2020/12/30 00:18:20;;;;;;;4.85;3.17;;;;;;;4.77;45.61;99296.16;5110140;28;20042;-67
2020/12/30 00:20:47;;;;;;;6.97;3.63;;;;;;;4.75;45.93;99304.41;5096024;28;20047;-67
2020/12/30 00:23:14;;;;;;;7.72;4.10;;;;;;;4.76;45.91;99302.56;5102399;28;20050;-68
2020/12/30 00:25:42;;;;;;;4.95;3.20;;;;;;;4.75;45.87;99312.53;5108133;28;20039;-67
2020/12/30 00:28:09;;;;;;;5.63;3.63;;;;;;;4.75;46.16;99303.53;5100708;28;20036;-67
2020/12/30 00:30:36;;;;;;;7.30;3.97;;;;;;;4.74;45.94;99302.69;5098988;28;20541;-67
2020/12/30 00:33:04;;;;;;;6.40;3.58;;;;;;;4.75;45.92;99303.53;5093198;28;20040;-67
2020/12/30 00:35:32;;;;;;;6.82;4.38;;;;;;;4.75;46.01;99304.41;5104037;28;20036;-67
2020/12/30 00:37:59;;;;;;;7.38;4.40;;;;;;;4.75;46.17;99306.25;5096919;27;20098;-68
2020/12/30 00:40:26;;;;;;;6.35;4.20;;;;;;;4.74;45.94;99307.22;5100928;28;20054;-67
2020/12/30 00:42:54;;;;;;;6.35;3.65;;;;;;;4.75;46.21;99307.09;5101564;28;20039;-67
2020/12/30 00:45:21;;;;;;;5.97;3.38;;;;;;;4.75;46.04;99311.66;5098089;28;20044;-67
2020/12/30 00:47:49;;;;;;;6.03;3.75;;;;;;;4.76;46.21;99314.25;5098961;28;20044;-69
2020/12/30 00:50:17;;;;;;;6.00;3.40;;;;;;;4.77;46.11;99312.41;5111611;28;20039;-67
2020/12/30 00:52:49;;;;;;;6.07;3.90;;;;;;;4.77;46.25;99313.22;5087116;28;20507;-67
2020/12/30 00:55:17;;;;;;;7.80;4.38;;;;;;;4.76;46.25;99311.53;5106080;28;20042;-67
2020/12/30 00:57:49;;;;;;;7.00;4.20;;;;;;;4.74;46.22;99310.81;5099201;28;20040;-67
2020/12/30 01:00:19;;;;;;;7.20;4.13;;;;;;;4.77;45.97;99321.34;5097586;28;20047;-67
2020/12/30 01:03:05;;;;;;;5.55;3.83;;;;;;;4.76;46.16;99322.38;5103562;28;20040;-68
2020/12/30 01:05:32;;;;;;;5.82;3.78;;;;;;;4.77;46.41;99320.53;5097809;28;20048;-67
2020/12/30 01:08:00;;;;;;;7.18;3.90;;;;;;;4.78;46.21;99323.06;5099622;28;20048;-67
2020/12/30 01:10:28;;;;;;;4.80;3.33;;;;;;;4.78;46.43;99331.19;5103877;28;20054;-67
2020/12/30 01:12:55;;;;;;;6.57;3.60;;;;;;;4.79;46.35;99321.22;5092882;28;20047;-67
2020/12/30 01:15:22;;;;;;;7.22;3.80;;;;;;;4.79;46.42;99323.94;5104850;28;20050;-67
2020/12/30 01:17:49;;;;;;;5.80;3.17;;;;;;;4.79;46.21;99330.22;5107785;28;20509;-67
2020/12/30 01:20:17;;;;;;;7.25;4.07;;;;;;;4.80;46.38;99331.94;5099511;28;20044;-67
2020/12/30 01:22:44;;;;;;;5.80;3.72;;;;;;;4.80;46.28;99336.50;5099508;28;20123;-67
2020/12/30 01:25:12;;;;;;;6.72;3.53;;;;;;;4.82;46.22;99338.09;5074844;28;20093;-67
2020/12/30 01:27:40;;;;;;;5.32;3.38;;;;;;;4.81;46.48;99336.38;5103863;28;20493;-67
2020/12/30 01:30:07;;;;;;;6.45;3.35;;;;;;;4.81;46.39;99339.06;5101819;28;20225;-68
2020/12/30 01:32:34;;;;;;;6.10;3.72;;;;;;;4.81;46.39;99330.94;5109822;28;20047;-67
2020/12/30 01:35:01;;;;;;;6.13;3.45;;;;;;;4.82;46.26;99340.78;5099668;28;20036;-67
2020/12/30 01:37:29;;;;;;;6.32;3.63;;;;;;;4.83;46.48;99344.38;5091944;28;20570;-67
2020/12/30 01:39:56;;;;;;;6.47;3.75;;;;;;;4.84;46.29;99354.22;5092641;28;20032;-67
2020/12/30 01:42:24;;;;;;;5.47;3.28;;;;;;;4.83;46.73;99345.22;5097217;28;20046;-67
2020/12/30 01:44:51;;;;;;;5.40;3.58;;;;;;;4.84;46.61;99346.94;5098774;28;20503;-67
2020/12/30 01:47:19;;;;;;;5.53;3.00;;;;;;;4.85;46.42;99358.66;5102825;28;20043;-67
2020/12/30 01:49:48;;;;;;;5.32;3.33;;;;;;;4.85;46.55;99345.09;5101777;28;20036;-67
2020/12/30 01:52:15;;;;;;;5.32;3.00;;;;;;;4.85;46.66;99347.81;5103378;28;20116;-67
2020/12/30 01:54:42;;;;;;;6.18;3.63;;;;;;;4.84;46.74;99357.78;5096912;28;20035;-68
2020/12/30 01:57:10;;;;;;;6.90;3.40;;;;;;;4.85;46.61;99356.75;5095052;28;20390;-68
2020/12/30 01:59:38;;;;;;;4.70;3.20;;;;;;;4.86;46.55;99363.03;5103252;28;20224;-67
2020/12/30 02:02:07;;;;;;;6.07;3.58;;;;;;;4.87;46.75;99355.78;5095311;28;20040;-67
2020/12/30 02:04:40;;;;;;;5.03;3.17;;;;;;;4.87;46.76;99362.06;5102978;28;20043;-68
2020/12/30 02:07:07;;;;;;;6.03;3.20;;;;;;;4.83;46.61;99360.63;5098639;28;20040;-68
2020/12/30 02:09:35;;;;;;;5.15;2.83;;;;;;;4.85;46.80;99359.47;5101751;28;20032;-67
2020/12/30 02:12:04;;;;;;;5.35;3.40;;;;;;;4.87;46.84;99366.63;5105723;28;20046;-68
2020/12/30 02:14:31;;;;;;;6.07;3.47;;;;;;;4.86;46.71;99363.03;5104330;28;20070;-67
2020/12/30 02:16:59;;;;;;;7.90;3.88;;;;;;;4.87;46.71;99364.75;5108929;28;20050;-67
2020/12/30 02:19:26;;;;;;;6.35;3.35;;;;;;;4.89;46.86;99372.78;5104153;28;20039;-67
2020/12/30 02:21:56;;;;;;;6.32;3.35;;;;;;;4.89;46.70;99373.63;5093468;28;20028;-68
2020/12/30 02:24:27;;;;;;;5.10;3.00;;;;;;;4.90;46.88;99380.78;5102922;28;20050;-67
2020/12/30 02:26:54;;;;;;;5.63;3.28;;;;;;;4.89;46.91;99379.06;5097560;28;20097;-66
2020/12/30 02:29:22;;;;;;;6.40;3.47;;;;;;;4.90;46.71;99371.78;5103841;28;20136;-68
2020/12/30 02:31:49;;;;;;;6.85;3.50;;;;;;;4.89;47.09;99373.63;5104833;28;20044;-67
2020/12/30 02:34:17;;;;;;;5.82;3.53;;;;;;;4.90;46.86;99374.50;5099699;28;20127;-67
2020/12/30 02:36:44;;;;;;;5.43;3.10;;;;;;;4.90;46.86;99379.91;5090990;28;20429;-67
2020/12/30 02:39:11;;;;;;;4.95;3.22;;;;;;;4.91;46.78;99381.63;5099913;28;20409;-67
2020/12/30 02:41:40;;;;;;;5.50;3.28;;;;;;;4.92;46.74;99383.34;5099369;28;20059;-67
2020/12/30 02:44:07;;;;;;;6.18;3.88;;;;;;;4.92;46.91;99386.06;5104494;28;20067;-67
2020/12/30 02:46:35;;;;;;;6.15;3.55;;;;;;;4.90;46.75;99385.34;5098982;28;20043;-67
2020/12/30 02:49:02;;;;;;;6.28;3.65;;;;;;;4.91;46.58;99381.63;5100277;28;20080;-67
2020/12/30 02:51:29;;;;;;;5.50;3.50;;;;;;;4.90;46.78;99382.63;5097021;28;20496;-67
2020/12/30 02:53:57;;;;;;;5.72;3.65;;;;;;;4.90;46.88;99388.91;5106477;28;20050;-67
2020/12/30 02:56:24;;;;;;;6.07;3.78;;;;;;;4.90;46.98;99398.88;5108487;28;20405;-67
2020/12/30 02:58:52;;;;;;;7.28;3.92;;;;;;;4.91;46.97;99392.47;5097080;28;20576;-68
2020/12/30 03:01:19;;;;;;;6.07;3.70;;;;;;;4.88;46.78;99399.00;5094932;28;20054;-67
2020/12/30 03:03:46;;;;;;;7.18;4.00;;;;;;;4.87;46.66;99394.56;5104216;28;20039;-67
2020/12/30 03:06:14;;;;;;;6.88;4.10;;;;;;;4.87;46.71;99400.00;5108156;28;20498;-67
2020/12/30 03:08:41;;;;;;;7.38;4.00;;;;;;;4.87;46.61;99409.97;5099867;28;20036;-67
2020/12/30 03:11:09;;;;;;;6.28;3.63;;;;;;;4.87;46.66;99407.25;5094323;28;20093;-67
2020/12/30 03:13:37;;;;;;;6.03;3.58;;;;;;;4.85;46.83;99408.25;5101372;28;20044;-67
2020/12/30 03:16:05;;;;;;;6.28;3.90;;;;;;;4.85;46.68;99404.72;5095953;28;20054;-67
2020/12/30 03:18:32;;;;;;;6.15;3.70;;;;;;;4.82;46.81;99400.41;5099748;28;20044;-67
2020/12/30 03:21:00;;;;;;;6.20;3.88;;;;;;;4.83;46.61;99409.38;5101464;28;20043;-67
2020/12/30 03:23:28;;;;;;;6.88;3.60;;;;;;;4.81;46.57;99408.66;5100588;28;20050;-67
2020/12/30 03:25:55;;;;;;;5.50;3.70;;;;;;;4.80;46.65;99417.75;5105086;28;20031;-68
2020/12/30 03:28:22;;;;;;;6.63;4.05;;;;;;;4.78;46.86;99412.47;5107993;28;20659;-68
2020/12/30 03:30:49;;;;;;;6.50;3.75;;;;;;;4.77;46.87;99412.63;5101841;28;20040;-67
2020/12/30 03:33:17;;;;;;;7.07;3.47;;;;;;;4.77;46.81;99420.75;5101541;22;20032;-68
2020/12/30 03:35:44;;;;;;;5.88;3.40;;;;;;;4.76;46.64;99427.16;5046089;28;20041;-68
2020/12/30 03:38:11;;;;;;;6.75;3.60;;;;;;;4.74;46.85;99427.28;5055255;28;20485;-68
2020/12/30 03:40:39;;;;;;;7.03;4.13;;;;;;;4.73;46.69;99422.84;5040801;28;20056;-67
2020/12/30 03:43:06;;;;;;;6.35;3.72;;;;;;;4.72;46.68;99418.41;5045601;28;20041;-68
2020/12/30 03:45:34;;;;;;;6.30;3.40;;;;;;;4.70;46.79;99422.25;5043477;28;20071;-67
2020/12/30 03:48:01;;;;;;;4.90;3.33;;;;;;;4.69;46.84;99424.09;5034347;28;20545;-68
2020/12/30 03:50:30;;;;;;;6.10;3.40;;;;;;;4.69;46.68;99420.50;5045588;28;20072;-67
2020/12/30 03:52:57;;;;;;;8.60;3.60;;;;;;;4.66;46.71;99413.53;5043490;28;20406;-67
2020/12/30 03:55:24;;;;;;;6.63;3.72;;;;;;;4.65;46.83;99417.22;5050260;28;20041;-68
2020/12/30 03:57:52;;;;;;;5.32;3.25;;;;;;;4.64;46.89;99418.22;5050053;28;20091;-67
2020/12/30 04:00:19;;;;;;;5.90;3.28;;;;;;;4.63;46.51;99418.34;5046335;28;20049;-68
2020/12/30 04:02:46;;;;;;;6.20;3.80;;;;;;;4.62;46.70;99419.31;5043363;28;20056;-68
2020/12/30 04:05:13;;;;;;;4.63;3.13;;;;;;;4.61;46.85;99420.31;5050537;28;20055;-67
2020/12/30 04:07:41;;;;;;;4.88;3.10;;;;;;;4.60;46.91;99418.63;5046745;28;20476;-68
2020/12/30 04:10:09;;;;;;;6.70;3.30;;;;;;;4.57;46.75;99416.16;5043783;28;20044;-67
2020/12/30 04:12:50;;;;;;;6.10;3.67;;;;;;;4.55;46.68;99419.00;5046515;28;20136;-68
2020/12/30 04:15:18;;;;;;;6.03;3.67;;;;;;;4.55;46.82;99418.13;5050287;28;21044;-68
2020/12/30 04:17:45;;;;;;;5.95;3.20;;;;;;;4.54;46.75;99417.25;5049952;28;20093;-68
2020/12/30 04:20:13;;;;;;;5.85;3.65;;;;;;;4.53;46.80;99423.66;5042429;28;20376;-68
2020/12/30 04:22:40;;;;;;;5.97;3.30;;;;;;;4.52;46.73;99424.69;5050556;28;20041;-68
2020/12/30 04:25:08;;;;;;;5.68;3.45;;;;;;;4.52;46.57;99421.13;5046959;28;20039;-67
2020/12/30 04:27:35;;;;;;;5.75;3.70;;;;;;;4.49;46.79;99430.34;5046361;28;20040;-68
2020/12/30 04:30:03;;;;;;;5.93;3.65;;;;;;;4.48;46.68;99425.91;5035716;28;20037;-68
2020/12/30 04:32:30;;;;;;;5.88;3.33;;;;;;;4.48;46.82;99433.16;5045231;28;22200;-67
2020/12/30 04:34:57;;;;;;;5.55;3.25;;;;;;;4.46;46.89;99433.28;5040856;28;20037;-67
2020/12/30 04:37:24;;;;;;;5.40;3.22;;;;;;;4.44;46.72;99438.00;5046234;28;20041;-68
2020/12/30 04:39:51;;;;;;;5.45;3.42;;;;;;;4.43;46.82;99429.00;5040103;28;20075;-67
2020/12/30 04:42:30;;;;;;;5.45;3.60;;;;;;;4.44;47.03;99438.00;5050106;28;20041;-67
2020/12/30 04:45:01;;;;;;;5.90;3.80;;;;;;;4.42;46.69;99434.56;5044894;28;20047;-68
2020/12/30 04:47:29;;;;;;;6.25;3.78;;;;;;;4.39;46.98;99437.50;5036687;28;20433;-68
2020/12/30 04:49:57;;;;;;;5.72;3.60;;;;;;;4.38;46.87;99435.78;5039921;28;20029;-68
2020/12/30 04:52:26;;;;;;;6.20;3.85;;;;;;;4.37;46.97;99440.34;5045202;28;20091;-68
2020/12/30 04:54:54;;;;;;;6.75;3.80;;;;;;;4.36;47.00;99446.72;5049831;28;20127;-67
2020/12/30 04:57:38;;;;;;;5.80;3.65;;;;;;;4.37;47.00;99445.75;5045008;28;20063;-68
2020/12/30 05:00:06;;;;;;;6.30;3.78;;;;;;;4.32;46.96;99450.69;5039511;28;20044;-68
2020/12/30 05:02:35;;;;;;;5.05;3.30;;;;;;;4.32;46.91;99445.28;5048248;28;20057;-68
2020/12/30 05:05:04;;;;;;;5.82;3.08;;;;;;;4.30;46.81;99443.69;5046771;28;20041;-68
2020/12/30 05:07:32;;;;;;;6.57;3.53;;;;;;;4.30;46.93;99449.97;5048346;28;20119;-68
2020/12/30 05:10:00;;;;;;;6.95;3.45;;;;;;;4.28;46.81;99451.91;5046903;28;20051;-68
2020/12/30 05:12:28;;;;;;;5.40;3.20;;;;;;;4.29;46.93;99453.66;5047948;28;20045;-68
2020/12/30 05:14:55;;;;;;;6.20;3.35;;;;;;;4.27;46.95;99450.22;5045464;28;20572;-68
2020/12/30 05:17:22;;;;;;;6.25;3.28;;;;;;;4.28;46.98;99454.63;5038493;28;20045;-68
2020/12/30 05:19:49;;;;;;;5.20;3.22;;;;;;;4.27;46.92;99452.94;5038201;28;20437;-68
2020/12/30 05:22:19;;;;;;;5.22;3.20;;;;;;;4.27;47.01;99454.78;5038093;28;20037;-68
2020/12/30 05:24:47;;;;;;;5.93;3.42;;;;;;;4.27;47.30;99463.75;5041745;28;20045;-68
2020/12/30 05:27:15;;;;;;;6.38;3.72;;;;;;;4.26;47.22;99453.91;5039039;28;20095;-68
2020/12/30 05:29:46;;;;;;;7.05;3.45;;;;;;;4.27;47.27;99466.47;5037050;28;20048;-68
2020/12/30 05:32:14;;;;;;;6.78;3.92;;;;;;;4.26;47.10;99464.75;5047165;28;20037;-68
2020/12/30 05:34:42;;;;;;;6.60;3.63;;;;;;;4.26;47.21;99472.88;5041440;28;20045;-68
2020/12/30 05:37:11;;;;;;;6.15;3.38;;;;;;;4.26;47.28;99470.16;5045079;28;20111;-68
2020/12/30 05:39:39;;;;;;;6.85;3.53;;;;;;;4.26;47.20;99475.56;5032953;28;20046;-68
2020/12/30 05:42:13;;;;;;;6.47;3.80;;;;;;;4.28;47.51;99475.41;5044638;28;20041;-69
2020/12/30 05:44:42;;;;;;;6.25;3.83;;;;;;;4.26;47.21;99475.56;5045548;28;20044;-68
2020/12/30 05:47:15;;;;;;;7.45;4.13;;;;;;;4.28;47.31;99473.56;5047501;28;20055;-68
2020/12/30 05:49:43;;;;;;;7.35;3.95;;;;;;;4.25;47.41;99481.09;5046848;28;20055;-67
2020/12/30 05:52:15;;;;;;;7.35;3.83;;;;;;;4.26;47.40;99480.13;5048794;28;20128;-68
2020/12/30 05:54:47;;;;;;;6.93;3.60;;;;;;;4.28;47.68;99487.13;5047197;28;20048;-68
2020/12/30 05:57:22;;;;;;;7.20;3.43;;;;;;;4.28;47.76;99486.25;5041719;28;20060;-67
2020/12/30 05:59:52;;;;;;;6.97;3.72;;;;;;;4.27;47.70;99488.13;5045578;28;20304;-68
2020/12/30 06:02:30;;;;;;;9.63;4.55;;;;;;;4.28;47.73;99489.81;5042005;28;20048;-67
2020/12/30 06:05:09;;;;;;;7.07;3.92;;;;;;;4.28;47.82;99492.53;5039801;28;20048;-67
2020/12/30 06:07:38;;;;;;;7.90;4.63;;;;;;;4.26;47.43;99499.94;5041409;28;20037;-68
2020/12/30 06:10:07;;;;;;;6.13;3.75;;;;;;;4.27;47.64;99496.25;5040749;28;20478;-67
2020/12/30 06:12:39;;;;;;;6.30;3.63;;;;;;;4.29;47.75;99498.81;5040244;28;20534;-67
2020/12/30 06:15:09;;;;;;;6.03;3.47;;;;;;;4.28;47.36;99506.06;5043807;28;20048;-67
2020/12/30 06:17:50;;;;;;;7.70;3.70;;;;;;;4.30;47.78;99511.34;5043282;28;20041;-68
2020/12/30 06:20:21;;;;;;;6.43;3.53;;;;;;;4.28;47.63;99516.88;5035655;28;20048;-67
2020/12/30 06:22:56;;;;;;;6.97;4.32;;;;;;;4.30;47.82;99512.22;5037268;28;20061;-68
2020/12/30 06:25:28;;;;;;;6.63;3.92;;;;;;;4.30;47.67;99519.47;5044328;28;20464;-68
2020/12/30 06:27:55;;;;;;;6.45;3.72;;;;;;;4.28;47.64;99522.31;5046126;28;20033;-68
2020/12/30 06:30:23;;;;;;;7.13;3.80;;;;;;;4.30;47.55;99519.47;5046179;28;20075;-68
2020/12/30 06:32:51;;;;;;;7.05;3.50;;;;;;;4.30;47.47;99520.34;5048728;28;20218;-68
2020/12/30 06:35:26;;;;;;;6.45;4.03;;;;;;;4.32;47.85;99521.09;5045350;28;20052;-67
2020/12/30 06:37:53;;;;;;;6.45;3.50;;;;;;;4.30;47.46;99522.19;5034847;28;20114;-68
2020/12/30 06:40:26;;;;;;;8.05;4.05;;;;;;;4.31;47.94;99527.47;5040182;28;20072;-68
2020/12/30 06:42:57;;;;;;;6.28;3.47;;;;;;;4.31;47.87;99527.47;5044828;28;20581;-68
2020/12/30 06:46:01;;;;;;;6.57;3.83;;;;;;;4.31;48.03;99532.03;5041660;28;20403;-68
2020/12/30 06:48:30;;;;;;;7.40;4.15;;;;;;;4.31;47.81;99534.75;5041293;28;20410;-68
2020/12/30 06:51:16;;;;;;;7.20;4.22;;;;;;;4.33;47.98;99538.19;5045178;28;20045;-67
2020/12/30 06:53:49;;;;;;;8.45;3.88;;;;;;;4.35;47.75;99544.34;5039092;28;20095;-68
2020/12/30 06:56:35;;;;;;;8.02;4.35;;;;;;;4.35;48.04;99549.75;5045400;28;20091;-68
2020/12/30 06:59:04;;;;;;;8.50;4.38;;;;;;;4.34;47.96;99553.44;5044171;28;20094;-68
2020/12/30 07:01:54;;;;;;;8.30;4.93;;;;;;;4.34;48.12;99551.59;5037884;28;20050;-68
2020/12/30 07:04:23;;;;;;;7.72;4.68;;;;;;;4.35;47.89;99563.28;5043834;28;20123;-68
2020/12/30 07:06:52;;;;;;;7.30;4.22;;;;;;;4.36;47.90;99570.41;5048405;28;20124;-68
2020/12/30 07:09:29;;;;;;;8.07;4.80;;;;;;;4.39;48.09;99562.91;5046862;28;20558;-68
2020/12/30 07:11:57;;;;;;;8.00;4.35;;;;;;;4.38;48.01;99568.44;5034789;28;20049;-68
2020/12/30 07:14:26;;;;;;;8.20;4.60;;;;;;;4.39;47.95;99581.88;5038535;28;20084;-68
2020/12/30 07:16:55;;;;;;;9.40;4.22;;;;;;;4.39;48.01;99581.00;5039303;28;20406;-68
2020/12/30 07:19:24;;;;;;;10.10;4.93;;;;;;;4.40;47.77;99585.44;5040000;28;20033;-68
2020/12/30 07:22:01;;;;;;;9.70;5.18;;;;;;;4.41;47.99;99593.44;5035433;28;20550;-68
2020/12/30 07:24:39;;;;;;;8.85;5.00;;;;;;;4.41;47.91;99604.28;5041106;28;20067;-68
2020/12/30 07:27:08;;;;;;;9.00;4.70;;;;;;;4.40;47.77;99602.53;5045268;28;20059;-68
2020/12/30 07:29:35;;;;;;;10.75;5.10;;;;;;;4.41;48.00;99611.53;5043446;28;20033;-68
2020/12/30 07:32:04;;;;;;;7.93;4.50;;;;;;;4.41;48.09;99606.97;5052834;28;20041;-68
2020/12/30 07:34:34;;;;;;;9.32;5.38;;;;;;;4.42;47.97;99610.53;5042755;28;20042;-68
2020/12/30 07:37:03;;;;;;;8.23;4.75;;;;;;;4.43;48.09;99621.25;5048828;28;20414;-68
2020/12/30 07:39:34;;;;;;;9.02;4.95;;;;;;;4.43;47.77;99618.56;5040916;28;20052;-68
2020/12/30 07:42:02;;;;;;;9.57;4.95;;;;;;;4.44;48.18;99627.53;5047821;28;20395;-68
2020/12/30 07:44:29;;;;;;;8.15;4.93;;;;;;;4.43;48.02;99623.09;5046679;28;20049;-68
2020/12/30 07:47:01;;;;;;;9.65;5.40;;;;;;;4.46;47.88;99626.41;5045893;28;20567;-68
2020/12/30 07:49:29;;;;;;;10.73;5.53;;;;;;;4.44;47.91;99646.50;5041312;28;20037;-68
2020/12/30 07:51:58;;;;;;;8.82;5.20;;;;;;;4.46;47.86;99648.06;5041506;28;20037;-68
2020/12/30 07:54:26;;;;;;;8.52;5.18;;;;;;;4.46;48.00;99649.91;5046519;28;20379;-68
2020/12/30 07:57:01;;;;;;;8.68;4.75;;;;;;;4.49;48.05;99656.94;5047971;28;20033;-68
2020/12/30 07:59:30;;;;;;;10.23;5.13;;;;;;;4.46;47.89;99660.75;5042659;28;20083;-68
2020/12/30 08:02:02;;;;;;;8.80;5.05;;;;;;;4.48;47.79;99661.50;5046386;28;20351;-69
2020/12/30 08:04:31;;;;;;;9.98;5.10;;;;;;;4.49;47.75;99662.34;5047228;28;20127;-69
2020/12/30 08:07:02;;;;;;;8.60;4.85;;;;;;;4.49;48.01;99665.94;5048549;28;20045;-68
2020/12/30 08:09:30;;;;;;;10.93;5.47;;;;;;;4.50;47.77;99664.94;5046611;28;20581;-68
2020/12/30 08:11:59;;;;;;;8.77;4.93;;;;;;;4.50;47.83;99672.22;5049915;28;20494;-68
2020/12/30 08:14:28;;;;;;;8.85;4.97;;;;;;;4.51;47.96;99674.78;5051410;28;20039;-68
2020/12/30 08:17:01;;;;;;;9.80;5.43;;;;;;;4.54;48.09;99681.78;5045571;28;20102;-69
2020/12/30 08:19:40;;;;;;;11.07;5.60;;;;;;;4.55;48.14;99683.53;5042586;28;20047;-68
2020/12/30 08:22:12;;;;;;;11.27;6.10;;;;;;;4.54;48.13;99685.38;5048353;28;20060;-69
2020/12/30 08:24:42;;;;;;;9.68;5.43;;;;;;;4.53;47.98;99688.19;5040624;28;20049;-69
2020/12/30 08:27:10;;;;;;;9.65;5.38;;;;;;;4.53;48.06;99696.31;5041429;28;20042;-68
2020/12/30 08:29:57;;;;;;;10.07;6.07;;;;;;;4.54;47.99;99693.50;5041540;28;20037;-69
2020/12/30 08:32:41;;;;;;;10.77;5.97;;;;;;;4.57;47.97;99698.66;5040416;28;20059;-68
2020/12/30 08:35:11;;;;;;;11.52;5.80;;;;;;;4.55;48.05;99697.94;5046034;28;20503;-69
2020/12/30 08:37:42;;;;;;;9.95;5.80;;;;;;;4.57;47.93;99701.38;5046445;28;20045;-69
2020/12/30 08:40:17;;;;;;;10.35;6.03;;;;;;;4.60;48.28;99703.84;5048277;28;20044;-68
2020/12/30 08:43:05;;;;;;;10.98;5.78;;;;;;;4.60;48.12;99711.13;5042480;28;20058;-68
2020/12/30 08:45:34;;;;;;;11.98;6.00;;;;;;;4.57;47.99;99708.66;5047338;28;20041;-69
2020/12/30 08:48:12;;;;;;;12.07;6.05;;;;;;;4.60;48.39;99711.13;5047724;28;20040;-68
2020/12/30 08:50:39;;;;;;;11.57;5.93;;;;;;;4.58;48.10;99713.06;5046735;28;20044;-68
2020/12/30 08:53:08;;;;;;;12.25;7.10;;;;;;;4.60;47.86;99717.41;5050354;28;20040;-68
2020/12/30 08:55:35;;;;;;;12.07;6.95;;;;;;;4.60;48.06;99722.81;5039862;28;20068;-70
2020/12/30 08:58:03;;;;;;;10.60;5.68;;;;;;;4.60;47.68;99720.09;5046330;28;20544;-68
2020/12/30 09:00:34;;;;;;;10.55;6.35;;;;;;;4.63;48.00;99721.69;5048172;28;20043;-68
2020/12/30 09:03:11;;;;;;;10.43;5.85;;;;;;;4.64;48.03;99726.13;5035132;28;20503;-69
2020/12/30 09:05:39;;;;;;;11.27;5.93;;;;;;;4.61;47.97;99729.94;5045708;28;20048;-68
2020/12/30 09:08:13;;;;;;;13.25;6.47;;;;;;;4.63;48.33;99727.97;5043816;28;20045;-68
2020/12/30 09:10:40;;;;;;;11.82;6.38;;;;;;;4.61;48.16;99737.19;5045933;28;20061;-68
2020/12/30 09:13:12;;;;;;;11.77;6.80;;;;;;;4.63;48.07;99730.69;5046972;28;20037;-68
2020/12/30 09:15:40;;;;;;;8.10;5.32;;;;;;;4.63;48.21;99737.94;5048210;28;20045;-68
2020/12/30 09:18:07;;;;;;;10.18;5.95;;;;;;;4.64;48.01;99736.97;5044514;28;20041;-68
2020/12/30 09:20:34;;;;;;;12.18;6.05;;;;;;;4.63;48.46;99735.22;5044060;28;20044;-69
2020/12/30 09:23:03;;;;;;;12.18;6.10;;;;;;;4.65;47.96;99736.84;5044775;28;20048;-69
2020/12/30 09:25:35;;;;;;;8.98;5.82;;;;;;;4.67;48.20;99737.59;5043982;28;20055;-69
2020/12/30 09:28:13;;;;;;;11.13;5.90;;;;;;;4.66;48.15;99740.41;5038936;28;20561;-69
2020/12/30 09:30:41;;;;;;;12.57;6.40;;;;;;;4.67;48.30;99740.31;5048132;28;20510;-68
2020/12/30 09:33:12;;;;;;;9.70;5.80;;;;;;;4.69;48.36;99738.31;5040239;28;20541;-70
2020/12/30 09:35:39;;;;;;;11.88;6.20;;;;;;;4.68;47.98;99744.75;5039267;28;20409;-70
2020/12/30 09:38:06;;;;;;;9.55;5.35;;;;;;;4.69;48.04;99741.00;5046549;28;20043;-70
2020/12/30 09:40:41;;;;;;;11.80;6.38;;;;;;;4.71;48.66;99744.47;5046873;28;20513;-70
2020/12/30 09:43:10;;;;;;;11.32;6.25;;;;;;;4.69;48.16;99742.84;5044798;28;20095;-69
2020/12/30 09:45:37;;;;;;;10.35;5.70;;;;;;;4.70;48.06;99737.31;5046194;28;20053;-72
2020/12/30 09:48:13;;;;;;;12.02;6.57;;;;;;;4.73;48.62;99745.22;5047068;28;20098;-73
2020/12/30 09:50:41;;;;;;;10.93;5.68;;;;;;;4.71;48.38;99740.91;5044130;28;20107;-71
2020/12/30 09:53:09;;;;;;;11.30;6.03;;;;;;;4.70;48.21;99747.28;5036253;28;20044;-69
2020/12/30 09:55:36;;;;;;;11.40;6.25;;;;;;;4.71;48.39;99749.03;5060625;28;20589;-70
2020/12/30 09:58:05;;;;;;;13.30;7.30;;;;;;;4.73;48.36;99749.78;5048426;28;20444;-70
2020/12/30 10:00:33;;;;;;;10.48;6.15;;;;;;;4.71;48.31;99746.31;5049190;28;20033;-71
2020/12/30 10:03:00;;;;;;;12.32;6.65;;;;;;;4.73;48.26;99760.59;5042467;28;20392;-69
2020/12/30 10:05:27;;;;;;;10.82;5.93;;;;;;;4.74;48.35;99746.09;5045909;28;20041;-69
2020/12/30 10:07:54;;;;;;;12.65;5.93;;;;;;;4.75;48.64;99750.53;5042306;28;20380;-70
2020/12/30 10:10:23;;;;;;;11.27;6.45;;;;;;;4.75;48.71;99748.69;5044120;28;20045;-70
2020/12/30 10:12:50;;;;;;;11.75;6.50;;;;;;;4.77;48.45;99753.97;5041293;28;20045;-71
2020/12/30 10:15:19;;;;;;;10.40;6.30;;;;;;;4.78;48.62;99755.69;5051251;28;20112;-67
2020/12/30 10:17:47;;;;;;;11.88;6.38;;;;;;;4.79;48.53;99757.41;5047498;28;20048;-68
2020/12/30 10:20:14;;;;;;;14.35;7.25;;;;;;;4.80;48.83;99762.72;5041710;28;20047;-68
2020/12/30 10:22:42;;;;;;;14.68;7.60;;;;;;;4.81;48.93;99769.00;5042564;28;20037;-67
2020/12/30 10:25:12;;;;;;;12.18;7.00;;;;;;;4.83;48.71;99765.19;5041093;28;20406;-67
2020/12/30 10:27:41;;;;;;;11.30;6.50;;;;;;;4.84;48.94;99769.63;5039809;28;20047;-69
2020/12/30 10:30:10;;;;;;;13.25;7.25;;;;;;;4.85;48.92;99768.59;5040669;28;20037;-67
2020/12/30 10:32:38;;;;;;;12.35;6.93;;;;;;;4.88;49.04;99778.34;5043610;28;20499;-67
2020/12/30 10:35:07;;;;;;;10.95;6.30;;;;;;;4.89;49.02;99771.09;5047431;28;20037;-67
2020/12/30 10:37:35;;;;;;;10.73;6.05;;;;;;;4.91;48.68;99775.41;5047442;28;20079;-67
2020/12/30 10:40:03;;;;;;;11.80;6.72;;;;;;;4.92;48.96;99782.56;5045226;28;20456;-67
2020/12/30 10:42:30;;;;;;;12.30;7.07;;;;;;;4.94;48.93;99777.84;5047675;28;20044;-67
2020/12/30 10:44:57;;;;;;;11.10;6.68;;;;;;;4.95;48.85;99778.72;5041246;28;20053;-68
2020/12/30 10:47:24;;;;;;;13.43;6.97;;;;;;;4.97;48.94;99782.16;5046221;28;20045;-67
2020/12/30 10:49:52;;;;;;;11.05;6.68;;;;;;;4.99;48.92;99778.38;5042685;28;20091;-70
2020/12/30 10:52:20;;;;;;;11.98;6.13;;;;;;;5.00;49.09;99777.38;5042728;28;20499;-68
2020/12/30 10:54:47;;;;;;;11.40;6.75;;;;;;;5.02;49.07;99779.94;5043122;28;20037;-68
2020/12/30 10:57:15;;;;;;;11.27;6.45;;;;;;;5.03;49.19;99787.09;5043947;28;20041;-68
2020/12/30 10:59:42;;;;;;;11.38;6.72;;;;;;;5.05;49.02;99788.69;5039171;28;20044;-67
2020/12/30 11:02:09;;;;;;;11.85;6.63;;;;;;;5.07;48.79;99780.44;5046260;28;20460;-67
2020/12/30 11:04:37;;;;;;;10.90;6.47;;;;;;;5.09;48.96;99783.91;5049642;28;20048;-69
2020/12/30 11:07:06;;;;;;;11.90;7.50;;;;;;;5.11;49.17;99787.34;5044134;28;20037;-67
2020/12/30 11:09:33;;;;;;;11.48;5.90;;;;;;;5.10;48.80;99786.47;5034865;28;20569;-68
2020/12/30 11:12:00;;;;;;;11.02;6.15;;;;;;;5.13;48.92;99785.38;5040439;28;20119;-69
2020/12/30 11:14:28;;;;;;;10.27;6.07;;;;;;;5.14;49.06;99782.53;5038556;28;20061;-68
2020/12/30 11:16:55;;;;;;;11.27;6.47;;;;;;;5.15;48.77;99775.28;5032910;28;20702;-68
2020/12/30 11:19:23;;;;;;;10.32;6.40;;;;;;;5.16;48.94;99786.00;5042100;28;20119;-70
2020/12/30 11:21:51;;;;;;;9.82;6.20;;;;;;;5.19;49.13;99787.56;5040490;28;20162;-68
2020/12/30 11:24:19;;;;;;;12.27;6.65;;;;;;;5.20;48.96;99784.75;5037084;28;20515;-71
2020/12/30 11:26:46;;;;;;;11.27;6.63;;;;;;;5.21;48.95;99793.75;5040035;28;20045;-73
2020/12/30 11:29:14;;;;;;;11.57;7.00;;;;;;;5.21;48.99;99781.06;5037223;28;20049;-70
2020/12/30 11:31:42;;;;;;;11.90;6.30;;;;;;;5.23;48.66;99783.66;5039432;28;20451;-73
2020/12/30 11:34:10;;;;;;;9.82;5.95;;;;;;;5.24;48.70;99782.66;5044000;28;20037;-69
2020/12/30 11:36:37;;;;;;;10.95;6.35;;;;;;;5.23;48.82;99778.22;5044741;28;20052;-69
2020/12/30 11:39:05;;;;;;;11.57;6.40;;;;;;;5.26;48.65;99779.84;5037545;28;20511;-70
2020/12/30 11:41:33;;;;;;;10.43;6.20;;;;;;;5.27;48.82;99776.97;5040565;28;20045;-69
2020/12/30 11:44:00;;;;;;;9.88;5.72;;;;;;;5.26;48.69;99777.13;5046439;28;20395;-69
2020/12/30 11:46:27;;;;;;;10.43;5.97;;;;;;;5.26;48.57;99767.13;5047972;28;20056;-69
2020/12/30 11:48:54;;;;;;;11.95;6.00;;;;;;;5.27;48.79;99773.41;5046420;28;20045;-69